createdAt,value
2018-04-29T00:00:22.778Z,14.43
2018-04-29T00:02:50.246Z,14.41
2018-04-29T00:05:17.762Z,14.43
2018-04-29T00:07:45.271Z,14.45
2018-04-29T00:10:12.784Z,14.48
2018-04-29T00:12:40.269Z,14.37
2018-04-29T00:15:07.798Z,14.34
2018-04-29T00:17:35.309Z,14.32
2018-04-29T00:20:02.815Z,14.39
2018-04-29T00:22:30.311Z,14.46
2018-04-29T00:24:57.804Z,14.47
2018-04-29T00:27:25.315Z,14.43
2018-04-29T00:29:52.801Z,14.45
2018-04-29T00:32:20.313Z,14.48
2018-04-29T00:34:47.831Z,14.49
2018-04-29T00:37:15.312Z,14.49
2018-04-29T00:39:42.784Z,14.51
2018-04-29T00:42:10.318Z,14.50
2018-04-29T00:44:37.784Z,14.47
2018-04-29T00:47:05.279Z,14.45
2018-04-29T00:49:32.776Z,14.36
2018-04-29T00:52:07.016Z,14.24
2018-04-29T00:54:34.530Z,14.19
2018-04-29T00:57:02.034Z,14.23
2018-04-29T00:59:29.561Z,14.28
2018-04-29T01:01:57.054Z,14.28
2018-04-29T01:04:24.541Z,14.34
2018-04-29T01:06:52.057Z,14.29
2018-04-29T01:09:19.556Z,14.31
2018-04-29T01:11:47.030Z,14.29
2018-04-29T01:14:14.519Z,14.28
2018-04-29T01:16:42.037Z,14.29
2018-04-29T01:19:09.520Z,14.30
2018-04-29T01:21:37.003Z,14.22
2018-04-29T01:24:04.496Z,14.24
2018-04-29T01:26:31.976Z,14.19
2018-04-29T01:28:59.468Z,14.19
2018-04-29T01:31:26.948Z,14.25
2018-04-29T01:33:54.452Z,14.21
2018-04-29T01:36:21.955Z,14.23
2018-04-29T01:38:49.451Z,14.20
2018-04-29T01:41:16.932Z,14.20
2018-04-29T01:43:44.428Z,14.21
2018-04-29T01:46:11.919Z,14.17
2018-04-29T01:48:39.435Z,14.15
2018-04-29T01:51:06.934Z,14.18
2018-04-29T01:53:34.427Z,14.17
2018-04-29T01:56:01.914Z,14.17
2018-04-29T01:58:29.470Z,14.18
2018-04-29T02:00:56.932Z,14.11
2018-04-29T02:03:24.399Z,14.00
2018-04-29T02:05:51.897Z,13.89
2018-04-29T02:08:19.446Z,13.80
2018-04-29T02:10:46.981Z,13.78
2018-04-29T02:13:14.490Z,13.77
2018-04-29T02:15:41.976Z,13.79
2018-04-29T02:18:09.464Z,13.85
2018-04-29T02:20:36.944Z,13.85
2018-04-29T02:23:04.442Z,13.86
2018-04-29T02:25:31.964Z,13.83
2018-04-29T02:27:59.458Z,13.73
2018-04-29T02:30:26.960Z,13.65
2018-04-29T02:32:54.453Z,13.65
2018-04-29T02:35:21.957Z,13.68
2018-04-29T02:37:49.436Z,13.73
2018-04-29T02:40:16.947Z,13.66
2018-04-29T02:42:44.461Z,13.67
2018-04-29T02:45:11.929Z,13.70
2018-04-29T02:47:39.397Z,13.73
2018-04-29T02:50:06.930Z,13.75
2018-04-29T02:52:34.451Z,13.75
2018-04-29T02:55:01.926Z,13.68
2018-04-29T02:57:29.418Z,13.65
2018-04-29T02:59:56.885Z,13.70
2018-04-29T03:02:24.348Z,13.66
2018-04-29T03:04:51.820Z,13.57
2018-04-29T03:07:19.313Z,13.42
2018-04-29T03:09:46.810Z,13.39
2018-04-29T03:12:14.285Z,13.41
2018-04-29T03:14:41.762Z,13.47
2018-04-29T03:17:09.298Z,13.46
2018-04-29T03:19:36.776Z,13.41
2018-04-29T03:22:04.251Z,13.37
2018-04-29T03:24:31.804Z,13.35
2018-04-29T03:26:59.303Z,13.38
2018-04-29T03:29:26.877Z,13.33
2018-04-29T03:31:54.364Z,13.32
2018-04-29T03:34:21.862Z,13.33
2018-04-29T03:36:49.336Z,13.24
2018-04-29T03:39:16.796Z,13.29
2018-04-29T03:41:44.286Z,13.18
2018-04-29T03:44:11.783Z,13.03
2018-04-29T03:46:39.260Z,13.03
2018-04-29T03:49:06.758Z,13.09
2018-04-29T03:51:34.238Z,13.15
2018-04-29T03:54:01.708Z,13.16
2018-04-29T03:56:29.224Z,13.08
2018-04-29T03:59:08.335Z,12.97
2018-04-29T04:01:51.279Z,12.97
2018-04-29T04:04:15.235Z,12.97
2018-04-29T04:06:42.709Z,12.79
2018-04-29T04:09:10.192Z,12.87
2018-04-29T04:11:37.707Z,12.83
2018-04-29T04:14:05.188Z,12.63
2018-04-29T04:16:32.677Z,12.53
2018-04-29T04:19:00.155Z,12.45
2018-04-29T04:21:27.661Z,12.51
2018-04-29T04:23:55.160Z,12.48
2018-04-29T04:26:22.672Z,12.45
2018-04-29T04:28:50.184Z,12.45
2018-04-29T04:31:17.664Z,12.44
2018-04-29T04:33:45.145Z,12.46
2018-04-29T04:36:12.630Z,12.47
2018-04-29T04:38:40.084Z,12.38
2018-04-29T04:41:07.575Z,12.36
2018-04-29T04:43:35.072Z,12.42
2018-04-29T04:46:02.540Z,12.40
2018-04-29T04:48:30.016Z,12.38
2018-04-29T04:50:57.558Z,12.32
2018-04-29T04:53:25.048Z,12.35
2018-04-29T04:55:52.618Z,12.38
2018-04-29T04:58:20.111Z,12.38
2018-04-29T05:00:47.581Z,12.34
2018-04-29T05:03:15.077Z,12.34
2018-04-29T05:05:42.552Z,12.35
2018-04-29T05:08:10.020Z,12.41
2018-04-29T05:10:37.516Z,12.41
2018-04-29T05:13:05.000Z,12.43
2018-04-29T05:15:32.485Z,12.33
2018-04-29T05:17:59.958Z,12.41
2018-04-29T05:20:27.458Z,12.48
2018-04-29T05:22:54.971Z,12.57
2018-04-29T05:25:22.496Z,12.58
2018-04-29T05:27:49.982Z,12.67
2018-04-29T05:30:17.784Z,12.72
2018-04-29T05:32:45.518Z,12.71
2018-04-29T05:35:13.146Z,12.75
2018-04-29T05:37:40.708Z,12.95
2018-04-29T05:40:08.192Z,13.00
2018-04-29T05:42:35.686Z,13.08
2018-04-29T05:45:03.189Z,13.13
2018-04-29T05:47:30.843Z,13.26
2018-04-29T05:49:58.332Z,13.35
2018-04-29T05:52:25.829Z,13.54
2018-04-29T05:54:53.339Z,13.68
2018-04-29T05:57:20.829Z,13.80
2018-04-29T05:59:48.328Z,13.96
2018-04-29T06:02:15.839Z,14.78
2018-04-29T06:04:43.364Z,15.31
2018-04-29T06:07:10.892Z,15.65
2018-04-29T06:09:39.272Z,16.15
2018-04-29T06:12:06.778Z,16.51
2018-04-29T06:14:34.442Z,16.51
2018-04-29T06:17:02.005Z,16.91
2018-04-29T06:19:29.534Z,17.01
2018-04-29T06:21:57.221Z,17.33
2018-04-29T06:24:24.784Z,17.74
2018-04-29T06:26:52.471Z,17.51
2018-04-29T06:29:20.526Z,17.17
2018-04-29T06:31:48.002Z,17.41
2018-04-29T06:34:15.487Z,17.08
2018-04-29T06:36:43.037Z,17.69
2018-04-29T06:39:12.352Z,17.81
2018-04-29T06:41:40.889Z,17.78
2018-04-29T06:44:08.650Z,18.46
2018-04-29T06:46:36.171Z,18.06
2018-04-29T06:49:03.742Z,17.85
2018-04-29T06:51:31.388Z,17.93
2018-04-29T06:53:58.947Z,17.59
2018-04-29T06:56:26.467Z,17.61
2018-04-29T06:58:54.095Z,17.91
2018-04-29T07:01:21.674Z,17.65
2018-04-29T07:03:49.296Z,17.32
2018-04-29T07:06:16.768Z,17.60
2018-04-29T07:08:44.260Z,17.70
2018-04-29T07:11:11.824Z,17.65
2018-04-29T07:13:40.365Z,17.54
2018-04-29T07:16:07.850Z,17.75
2018-04-29T07:18:35.360Z,17.81
2018-04-29T07:21:03.403Z,18.08
2018-04-29T07:23:30.925Z,17.71
2018-04-29T07:25:58.482Z,17.88
2018-04-29T07:28:26.391Z,17.97
2018-04-29T07:30:53.940Z,18.07
2018-04-29T07:33:21.454Z,18.73
2018-04-29T07:35:48.942Z,18.59
2018-04-29T07:38:16.614Z,18.67
2018-04-29T07:40:44.179Z,18.65
2018-04-29T07:43:11.694Z,18.67
2018-04-29T07:45:39.402Z,18.21
2018-04-29T07:48:06.962Z,18.71
2018-04-29T07:50:34.818Z,18.95
2018-04-29T07:53:02.302Z,19.26
2018-04-29T07:55:30.147Z,19.50
2018-04-29T07:57:57.666Z,19.29
2018-04-29T08:00:25.164Z,18.97
2018-04-29T08:02:52.680Z,19.29
2018-04-29T08:05:20.229Z,18.81
2018-04-29T08:07:47.731Z,19.33
2018-04-29T08:10:15.326Z,19.08
2018-04-29T08:12:42.843Z,19.75
2018-04-29T08:15:10.348Z,19.24
2018-04-29T08:17:37.826Z,19.99
2018-04-29T08:20:05.312Z,20.49
2018-04-29T08:22:32.842Z,19.33
2018-04-29T08:25:00.352Z,19.52
2018-04-29T08:27:27.922Z,19.52
2018-04-29T08:29:55.525Z,19.51
2018-04-29T08:32:23.017Z,19.63
2018-04-29T08:34:50.530Z,19.65
2018-04-29T08:37:18.025Z,19.57
2018-04-29T08:39:45.516Z,19.65
2018-04-29T08:42:13.039Z,19.73
2018-04-29T08:44:40.524Z,19.86
2018-04-29T08:47:08.000Z,20.10
2018-04-29T08:49:35.511Z,20.01
2018-04-29T08:52:03.019Z,19.93
2018-04-29T08:54:30.527Z,19.73
2018-04-29T08:56:58.033Z,19.88
2018-04-29T08:59:25.552Z,20.16
2018-04-29T09:01:53.053Z,20.01
2018-04-29T09:04:20.553Z,20.17
2018-04-29T09:06:48.047Z,20.18
2018-04-29T09:09:15.527Z,20.26
2018-04-29T09:11:43.334Z,20.14
2018-04-29T09:14:10.811Z,20.26
2018-04-29T09:16:38.443Z,20.55
2018-04-29T09:19:05.959Z,20.15
2018-04-29T09:21:33.745Z,20.23
2018-04-29T09:24:01.312Z,20.50
2018-04-29T09:26:28.802Z,20.32
2018-04-29T09:28:56.334Z,20.40
2018-04-29T09:31:23.827Z,20.32
2018-04-29T09:33:51.338Z,20.32
2018-04-29T09:36:18.814Z,20.53
2018-04-29T09:38:46.311Z,20.15
2018-04-29T09:41:13.850Z,20.47
2018-04-29T09:43:41.503Z,20.65
2018-04-29T09:46:08.963Z,20.80
2018-04-29T09:48:36.466Z,20.60
2018-04-29T09:51:03.936Z,20.51
2018-04-29T09:53:31.464Z,20.45
2018-04-29T09:55:58.977Z,20.18
2018-04-29T09:58:26.444Z,20.23
2018-04-29T10:00:57.839Z,20.23
2018-04-29T10:03:25.391Z,20.45
2018-04-29T10:05:52.933Z,20.47
2018-04-29T10:08:20.424Z,20.61
2018-04-29T10:10:47.908Z,20.79
2018-04-29T10:13:15.392Z,20.62
2018-04-29T10:15:42.917Z,20.78
2018-04-29T10:18:10.424Z,20.86
2018-04-29T10:20:37.938Z,21.05
2018-04-29T10:23:05.447Z,20.89
2018-04-29T10:25:32.928Z,21.01
2018-04-29T10:28:00.430Z,21.08
2018-04-29T10:30:27.914Z,21.41
2018-04-29T10:32:55.467Z,21.48
2018-04-29T10:35:22.897Z,21.52
2018-04-29T10:37:50.383Z,21.52
2018-04-29T10:40:17.860Z,21.34
2018-04-29T10:42:45.457Z,21.40
2018-04-29T10:45:12.933Z,21.42
2018-04-29T10:47:42.248Z,21.64
2018-04-29T10:50:09.751Z,21.55
2018-04-29T10:52:37.237Z,21.43
2018-04-29T10:55:04.716Z,21.53
2018-04-29T10:57:32.308Z,21.79
2018-04-29T10:59:59.852Z,21.25
2018-04-29T11:02:27.343Z,21.55
2018-04-29T11:04:54.954Z,21.34
2018-04-29T11:07:22.468Z,21.39
2018-04-29T11:09:49.952Z,21.34
2018-04-29T11:12:17.443Z,21.51
2018-04-29T11:14:44.955Z,21.78
2018-04-29T11:17:12.503Z,21.91
2018-04-29T11:19:39.987Z,21.63
2018-04-29T11:22:07.474Z,21.64
2018-04-29T11:24:35.005Z,21.83
2018-04-29T11:27:02.547Z,21.72
2018-04-29T11:29:29.980Z,21.73
2018-04-29T11:31:57.471Z,21.53
2018-04-29T11:34:24.969Z,21.42
2018-04-29T11:36:52.499Z,21.48
2018-04-29T11:39:20.017Z,21.46
2018-04-29T11:41:47.623Z,21.42
2018-04-29T11:44:15.168Z,21.55
2018-04-29T11:46:42.646Z,21.57
2018-04-29T11:49:10.141Z,21.46
2018-04-29T11:51:37.684Z,21.45
2018-04-29T11:54:05.174Z,21.34
2018-04-29T11:56:32.659Z,21.40
2018-04-29T11:59:00.150Z,21.49
2018-04-29T12:01:27.637Z,21.62
2018-04-29T12:03:55.274Z,21.67
2018-04-29T12:06:22.777Z,21.76
2018-04-29T12:08:50.321Z,21.65
2018-04-29T12:11:17.818Z,21.91
2018-04-29T12:13:45.505Z,21.98
2018-04-29T12:16:12.996Z,21.99
2018-04-29T12:18:40.489Z,21.96
2018-04-29T12:21:08.000Z,21.86
2018-04-29T12:23:35.474Z,21.79
2018-04-29T12:26:02.974Z,21.74
2018-04-29T12:28:30.652Z,21.67
2018-04-29T12:30:58.160Z,21.81
2018-04-29T12:33:25.647Z,21.86
2018-04-29T12:35:53.231Z,21.84
2018-04-29T12:38:20.810Z,21.82
2018-04-29T12:40:48.330Z,21.93
2018-04-29T12:43:15.833Z,21.95
2018-04-29T12:45:43.336Z,22.04
2018-04-29T12:48:10.820Z,21.88
2018-04-29T12:50:38.383Z,21.88
2018-04-29T12:53:05.886Z,21.89
2018-04-29T12:55:33.368Z,21.68
2018-04-29T12:58:00.886Z,21.70
2018-04-29T13:00:28.390Z,21.49
2018-04-29T13:02:55.899Z,21.61
2018-04-29T13:05:23.556Z,21.54
2018-04-29T13:07:51.063Z,21.65
2018-04-29T13:10:18.568Z,21.42
2018-04-29T13:12:46.049Z,21.49
2018-04-29T13:15:13.611Z,21.44
2018-04-29T13:17:41.153Z,21.58
2018-04-29T13:20:08.685Z,21.82
2018-04-29T13:22:36.161Z,22.12
2018-04-29T13:25:03.646Z,22.20
2018-04-29T13:27:31.131Z,22.42
2018-04-29T13:29:58.636Z,22.30
2018-04-29T13:32:27.117Z,22.34
2018-04-29T13:34:54.660Z,22.19
2018-04-29T13:37:22.202Z,22.23
2018-04-29T13:39:49.690Z,22.21
2018-04-29T13:42:17.232Z,22.25
2018-04-29T13:44:44.660Z,22.33
2018-04-29T13:47:12.187Z,22.20
2018-04-29T13:49:39.676Z,22.15
2018-04-29T13:52:07.196Z,22.16
2018-04-29T13:54:34.731Z,22.28
2018-04-29T13:57:02.245Z,22.37
2018-04-29T13:59:29.815Z,22.41
2018-04-29T14:01:57.391Z,22.52
2018-04-29T14:04:24.851Z,22.50
2018-04-29T14:06:52.349Z,22.62
2018-04-29T14:09:19.842Z,22.70
2018-04-29T14:11:47.357Z,22.64
2018-04-29T14:14:14.852Z,22.68
2018-04-29T14:16:42.359Z,22.65
2018-04-29T14:19:09.878Z,22.71
2018-04-29T14:21:37.398Z,22.64
2018-04-29T14:24:04.887Z,22.81
2018-04-29T14:26:32.361Z,22.79
2018-04-29T14:28:59.851Z,22.74
2018-04-29T14:31:27.332Z,22.80
2018-04-29T14:33:54.832Z,22.73
2018-04-29T14:36:22.324Z,22.83
2018-04-29T14:38:49.820Z,22.80
2018-04-29T14:41:17.322Z,22.77
2018-04-29T14:43:44.951Z,22.88
2018-04-29T14:46:12.730Z,22.71
2018-04-29T14:48:40.242Z,22.78
2018-04-29T14:51:07.929Z,22.65
2018-04-29T14:53:35.452Z,22.72
2018-04-29T14:56:02.950Z,22.72
2018-04-29T14:58:30.438Z,22.76
2018-04-29T15:00:57.954Z,22.75
2018-04-29T15:03:25.458Z,22.83
2018-04-29T15:05:52.971Z,22.82
2018-04-29T15:08:20.519Z,22.85
2018-04-29T15:10:48.186Z,22.78
2018-04-29T15:13:15.713Z,22.69
2018-04-29T15:15:43.207Z,22.69
2018-04-29T15:18:22.349Z,22.69
2018-04-29T15:20:49.878Z,22.60
2018-04-29T15:23:17.503Z,22.67
2018-04-29T15:25:45.234Z,22.76
2018-04-29T15:28:12.760Z,22.84
2018-04-29T15:30:40.263Z,22.92
2018-04-29T15:33:07.752Z,22.94
2018-04-29T15:35:35.388Z,22.90
2018-04-29T15:38:02.886Z,22.91
2018-04-29T15:40:30.653Z,22.93
2018-04-29T15:42:58.158Z,22.94
2018-04-29T15:45:25.766Z,22.97
2018-04-29T15:47:53.276Z,22.98
2018-04-29T15:50:21.085Z,22.84
2018-04-29T15:52:48.850Z,22.74
2018-04-29T15:55:16.416Z,22.72
2018-04-29T15:57:44.062Z,22.69
2018-04-29T16:00:11.587Z,22.74
2018-04-29T16:02:39.098Z,22.73
2018-04-29T16:05:06.585Z,22.62
2018-04-29T16:07:34.068Z,22.55
2018-04-29T16:10:01.578Z,22.60
2018-04-29T16:12:29.073Z,22.62
2018-04-29T16:14:56.573Z,22.67
2018-04-29T16:17:24.088Z,22.68
2018-04-29T16:19:51.568Z,22.70
2018-04-29T16:22:19.083Z,22.68
2018-04-29T16:24:46.593Z,22.75
2018-04-29T16:27:14.077Z,22.82
2018-04-29T16:29:41.737Z,22.79
2018-04-29T16:32:09.437Z,22.83
2018-04-29T16:34:36.934Z,22.94
2018-04-29T16:37:04.408Z,22.89
2018-04-29T16:39:31.952Z,22.77
2018-04-29T16:41:59.599Z,22.69
2018-04-29T16:44:27.089Z,22.68
2018-04-29T16:46:54.610Z,22.68
2018-04-29T16:49:22.144Z,22.64
2018-04-29T16:51:49.714Z,22.60
2018-04-29T16:54:17.215Z,22.65
2018-04-29T16:56:44.697Z,22.58
2018-04-29T16:59:12.184Z,22.58
2018-04-29T17:01:39.954Z,22.59
2018-04-29T17:04:07.586Z,22.56
2018-04-29T17:06:35.083Z,22.58
2018-04-29T17:09:02.636Z,22.52
2018-04-29T17:11:30.130Z,22.52
2018-04-29T17:13:57.652Z,22.49
2018-04-29T17:16:25.136Z,22.44
2018-04-29T17:18:52.624Z,22.43
2018-04-29T17:21:20.106Z,22.39
2018-04-29T17:23:47.600Z,22.40
2018-04-29T17:26:15.074Z,22.32
2018-04-29T17:28:42.550Z,22.34
2018-04-29T17:31:10.076Z,22.34
2018-04-29T17:33:37.544Z,22.29
2018-04-29T17:36:05.071Z,22.23
2018-04-29T17:38:32.547Z,22.22
2018-04-29T17:41:00.029Z,22.18
2018-04-29T17:43:27.524Z,22.15
2018-04-29T17:45:55.023Z,22.13
2018-04-29T17:48:22.506Z,22.11
2018-04-29T17:50:50.000Z,22.03
2018-04-29T17:53:17.529Z,21.97
2018-04-29T17:55:45.008Z,21.89
2018-04-29T17:58:12.515Z,21.83
2018-04-29T18:00:40.035Z,21.80
2018-04-29T18:03:07.511Z,21.76
2018-04-29T18:05:35.012Z,21.74
2018-04-29T18:08:02.548Z,21.67
2018-04-29T18:10:30.041Z,21.61
2018-04-29T18:12:57.606Z,21.57
2018-04-29T18:15:25.299Z,21.48
2018-04-29T18:17:52.807Z,21.42
2018-04-29T18:20:20.389Z,21.38
2018-04-29T18:22:47.889Z,21.30
2018-04-29T18:25:15.365Z,21.20
2018-04-29T18:27:42.889Z,21.14
2018-04-29T18:30:10.359Z,21.05
2018-04-29T18:32:37.872Z,20.95
2018-04-29T18:35:05.341Z,20.89
2018-04-29T18:37:32.858Z,20.82
2018-04-29T18:40:00.326Z,20.79
2018-04-29T18:42:28.430Z,20.70
2018-04-29T18:44:55.908Z,20.69
2018-04-29T18:47:23.419Z,20.62
2018-04-29T18:49:52.893Z,20.57
2018-04-29T18:52:20.415Z,20.48
2018-04-29T18:54:47.922Z,20.47
2018-04-29T18:57:15.430Z,20.43
2018-04-29T18:59:42.930Z,20.31
2018-04-29T19:02:10.436Z,20.27
2018-04-29T19:04:37.958Z,20.22
2018-04-29T19:07:05.507Z,20.24
2018-04-29T19:09:33.594Z,20.16
2018-04-29T19:12:01.163Z,20.16
2018-04-29T19:14:28.749Z,20.15
2018-04-29T19:16:56.329Z,20.13
2018-04-29T19:19:23.802Z,20.09
2018-04-29T19:21:51.510Z,20.03
2018-04-29T19:24:19.157Z,19.98
2018-04-29T19:26:47.625Z,19.97
2018-04-29T19:29:15.132Z,19.93
2018-04-29T19:31:42.728Z,19.88
2018-04-29T19:34:10.351Z,19.80
2018-04-29T19:36:38.125Z,19.79
2018-04-29T19:39:05.651Z,19.81
2018-04-29T19:41:37.382Z,19.80
2018-04-29T19:44:04.893Z,19.77
2018-04-29T19:46:32.417Z,19.72
2018-04-29T19:48:59.946Z,19.72
2018-04-29T19:51:27.476Z,19.65
2018-04-29T19:53:54.972Z,19.64
2018-04-29T19:56:22.489Z,19.59
2018-04-29T19:58:50.038Z,19.54
2018-04-29T20:01:17.546Z,19.49
2018-04-29T20:03:45.068Z,19.41
2018-04-29T20:06:12.781Z,19.29
2018-04-29T20:08:40.301Z,19.23
2018-04-29T20:11:07.851Z,19.14
2018-04-29T20:13:35.336Z,19.17
2018-04-29T20:16:02.842Z,19.07
2018-04-29T20:18:30.338Z,19.01
2018-04-29T20:20:57.913Z,18.97
2018-04-29T20:23:25.517Z,18.94
2018-04-29T20:25:53.030Z,18.90
2018-04-29T20:28:21.229Z,18.84
2018-04-29T20:30:48.907Z,18.81
2018-04-29T20:33:16.508Z,18.79
2018-04-29T20:35:44.010Z,18.73
2018-04-29T20:38:11.567Z,18.64
2018-04-29T20:40:39.165Z,18.68
2018-04-29T20:43:06.991Z,18.63
2018-04-29T20:48:14.689Z,18.67
2018-04-29T20:50:42.189Z,18.64
2018-04-29T20:53:09.674Z,18.64
2018-04-29T20:55:37.276Z,18.59
2018-04-29T20:58:04.794Z,18.62
2018-04-29T21:00:32.296Z,18.64
2018-04-29T21:02:59.892Z,18.68
2018-04-29T21:05:27.427Z,18.79
2018-04-29T21:07:54.947Z,18.83
2018-04-29T21:10:22.761Z,18.93
2018-04-29T21:12:50.278Z,18.97
2018-04-29T21:15:17.789Z,19.04
2018-04-29T21:17:45.553Z,19.08
2018-04-29T21:20:13.187Z,19.13
2018-04-29T21:22:40.736Z,19.11
2018-04-29T21:25:08.264Z,19.25
2018-04-29T21:27:35.788Z,19.28
2018-04-29T21:30:03.256Z,19.33
2018-04-29T21:32:31.035Z,19.36
2018-04-29T21:34:58.511Z,19.32
2018-04-29T21:37:26.021Z,19.40
2018-04-29T21:39:53.549Z,19.50
2018-04-29T21:42:21.068Z,19.56
2018-04-29T21:44:48.579Z,19.56
2018-04-29T21:47:16.089Z,19.58
2018-04-29T21:49:43.572Z,19.49
2018-04-29T21:52:11.053Z,19.43
2018-04-29T21:54:38.540Z,19.43
2018-04-29T21:57:06.033Z,19.40
2018-04-29T21:59:33.510Z,19.34
2018-04-29T22:02:01.011Z,19.29
2018-04-29T22:04:28.475Z,19.21
2018-04-29T22:06:56.003Z,19.19
2018-04-29T22:09:23.550Z,19.17
2018-04-29T22:11:51.041Z,19.12
2018-04-29T22:14:18.538Z,19.08
2018-04-29T22:16:46.007Z,19.11
2018-04-29T22:19:13.472Z,19.11
2018-04-29T22:21:40.948Z,18.97
2018-04-29T22:24:08.461Z,18.94
2018-04-29T22:26:35.964Z,18.84
2018-04-29T22:29:03.463Z,18.75
2018-04-29T22:31:30.956Z,18.72
2018-04-29T22:33:58.446Z,18.74
2018-04-29T22:36:25.916Z,18.72
2018-04-29T22:38:53.407Z,18.72
2018-04-29T22:41:20.905Z,18.72
2018-04-29T22:43:48.385Z,18.88
2018-04-29T22:46:15.889Z,18.96
2018-04-29T22:48:43.389Z,18.96
2018-04-29T22:51:10.923Z,19.07
2018-04-29T22:53:38.404Z,19.08
2018-04-29T22:56:05.886Z,19.01
2018-04-29T22:58:33.507Z,19.04
2018-04-29T23:01:00.972Z,19.08
2018-04-29T23:03:28.455Z,19.14
2018-04-29T23:05:55.949Z,19.07
2018-04-29T23:08:23.426Z,19.14
2018-04-29T23:10:50.920Z,19.06
2018-04-29T23:13:18.418Z,19.12
2018-04-29T23:15:45.900Z,19.14
2018-04-29T23:18:13.377Z,19.15
2018-04-29T23:20:40.869Z,19.16
2018-04-29T23:23:08.363Z,19.11
2018-04-29T23:25:35.867Z,19.06
2018-04-29T23:28:03.351Z,19.03
2018-04-29T23:30:30.839Z,19.05
2018-04-29T23:32:58.313Z,19.00
2018-04-29T23:35:25.844Z,19.00
2018-04-29T23:37:53.256Z,18.87
2018-04-29T23:40:21.064Z,18.82
2018-04-29T23:42:48.554Z,18.78
2018-04-29T23:45:16.042Z,18.63
2018-04-29T23:47:43.602Z,18.60
2018-04-29T23:50:11.133Z,18.57
2018-04-29T23:52:38.640Z,18.58
2018-04-29T23:55:06.135Z,18.57
2018-04-29T23:57:33.615Z,18.48
